sensor_id;sensor_type;location;lat;lon;timestamp;temperature;humidity
66740;DHT22;53653;52.188;8.602;2022-09-03T00:00:53;15.74;54.74
66740;DHT22;53653;52.188;8.602;2022-09-03T00:03:51;15.53;55.48
66740;DHT22;53653;52.188;8.602;2022-09-03T00:06:25;15.49;55.75
66740;DHT22;53653;52.188;8.602;2022-09-03T00:11:53;15.42;55.82
66740;DHT22;53653;52.188;8.602;2022-09-03T00:14:24;15.43;55.92
66740;DHT22;53653;52.188;8.602;2022-09-03T00:16:58;15.44;55.73
66740;DHT22;53653;52.188;8.602;2022-09-03T00:19:32;15.46;55.60
66740;DHT22;53653;52.188;8.602;2022-09-03T00:22:07;15.47;55.58
66740;DHT22;53653;52.188;8.602;2022-09-03T00:24:38;15.44;55.69
66740;DHT22;53653;52.188;8.602;2022-09-03T00:27:12;15.43;55.63
66740;DHT22;53653;52.188;8.602;2022-09-03T00:29:44;15.43;55.72
66740;DHT22;53653;52.188;8.602;2022-09-03T00:32:24;15.43;55.70
66740;DHT22;53653;52.188;8.602;2022-09-03T00:34:56;15.39;56.04
66740;DHT22;53653;52.188;8.602;2022-09-03T00:37:23;15.32;56.12
66740;DHT22;53653;52.188;8.602;2022-09-03T00:39:49;15.36;56.16
66740;DHT22;53653;52.188;8.602;2022-09-03T00:42:27;15.32;56.22
66740;DHT22;53653;52.188;8.602;2022-09-03T00:50:28;15.11;57.11
66740;DHT22;53653;52.188;8.602;2022-09-03T00:53:02;15.09;57.07
66740;DHT22;53653;52.188;8.602;2022-09-03T01:00:49;14.88;57.97
66740;DHT22;53653;52.188;8.602;2022-09-03T01:03:34;14.83;58.21
66740;DHT22;53653;52.188;8.602;2022-09-03T01:06:15;14.68;58.73
66740;DHT22;53653;52.188;8.602;2022-09-03T01:20:06;14.46;59.50
66740;DHT22;53653;52.188;8.602;2022-09-03T01:31:36;14.50;59.67
66740;DHT22;53653;52.188;8.602;2022-09-03T01:33:43;14.44;59.90
66740;DHT22;53653;52.188;8.602;2022-09-03T01:36:23;14.40;60.09
66740;DHT22;53653;52.188;8.602;2022-09-03T01:39:02;14.32;60.46
66740;DHT22;53653;52.188;8.602;2022-09-03T01:41:51;14.32;60.47
66740;DHT22;53653;52.188;8.602;2022-09-03T01:48:00;14.27;60.65
66740;DHT22;53653;52.188;8.602;2022-09-03T01:50:56;14.29;60.65
66740;DHT22;53653;52.188;8.602;2022-09-03T01:59:14;14.33;60.45
66740;DHT22;53653;52.188;8.602;2022-09-03T02:01:49;14.29;60.71
66740;DHT22;53653;52.188;8.602;2022-09-03T02:04:20;14.25;60.92
66740;DHT22;53653;52.188;8.602;2022-09-03T02:06:48;14.20;61.05
66740;DHT22;53653;52.188;8.602;2022-09-03T02:09:15;14.20;61.08
66740;DHT22;53653;52.188;8.602;2022-09-03T02:11:43;14.16;61.28
66740;DHT22;53653;52.188;8.602;2022-09-03T02:14:11;14.10;61.40
66740;DHT22;53653;52.188;8.602;2022-09-03T02:16:36;14.06;61.74
66740;DHT22;53653;52.188;8.602;2022-09-03T02:19:06;14.09;61.73
66740;DHT22;53653;52.188;8.602;2022-09-03T02:21:37;14.04;61.81
66740;DHT22;53653;52.188;8.602;2022-09-03T02:24:04;14.01;61.97
66740;DHT22;53653;52.188;8.602;2022-09-03T02:26:30;13.96;62.34
66740;DHT22;53653;52.188;8.602;2022-09-03T02:28:56;13.92;62.45
66740;DHT22;53653;52.188;8.602;2022-09-03T02:31:22;13.88;62.60
66740;DHT22;53653;52.188;8.602;2022-09-03T02:33:48;13.85;62.74
66740;DHT22;53653;52.188;8.602;2022-09-03T02:36:17;13.85;62.74
66740;DHT22;53653;52.188;8.602;2022-09-03T02:38:44;13.77;63.05
66740;DHT22;53653;52.188;8.602;2022-09-03T02:41:10;13.69;63.33
66740;DHT22;53653;52.188;8.602;2022-09-03T02:43:51;13.69;63.37
66740;DHT22;53653;52.188;8.602;2022-09-03T02:46:31;13.71;63.38
66740;DHT22;53653;52.188;8.602;2022-09-03T02:48:57;13.74;63.20
66740;DHT22;53653;52.188;8.602;2022-09-03T02:51:22;13.78;63.09
66740;DHT22;53653;52.188;8.602;2022-09-03T02:53:48;13.78;63.02
66740;DHT22;53653;52.188;8.602;2022-09-03T02:56:13;13.82;63.03
66740;DHT22;53653;52.188;8.602;2022-09-03T02:58:39;13.79;63.07
66740;DHT22;53653;52.188;8.602;2022-09-03T03:01:05;13.72;63.20
66740;DHT22;53653;52.188;8.602;2022-09-03T03:03:31;13.67;63.49
66740;DHT22;53653;52.188;8.602;2022-09-03T03:06:02;13.65;63.58
66740;DHT22;53653;52.188;8.602;2022-09-03T03:08:28;13.65;63.52
66740;DHT22;53653;52.188;8.602;2022-09-03T03:10:55;13.64;63.61
66740;DHT22;53653;52.188;8.602;2022-09-03T03:13:28;13.65;63.56
66740;DHT22;53653;52.188;8.602;2022-09-03T03:16:02;13.67;63.49
66740;DHT22;53653;52.188;8.602;2022-09-03T03:18:30;13.64;63.54
66740;DHT22;53653;52.188;8.602;2022-09-03T03:20:56;13.64;63.59
66740;DHT22;53653;52.188;8.602;2022-09-03T03:23:22;13.64;63.59
66740;DHT22;53653;52.188;8.602;2022-09-03T03:25:47;13.68;63.42
66740;DHT22;53653;52.188;8.602;2022-09-03T03:28:13;13.72;63.25
66740;DHT22;53653;52.188;8.602;2022-09-03T03:30:39;13.75;63.01
66740;DHT22;53653;52.188;8.602;2022-09-03T03:33:07;13.78;62.95
66740;DHT22;53653;52.188;8.602;2022-09-03T03:35:33;13.81;62.92
66740;DHT22;53653;52.188;8.602;2022-09-03T03:37:59;13.82;62.80
66740;DHT22;53653;52.188;8.602;2022-09-03T03:40:25;13.79;62.97
66740;DHT22;53653;52.188;8.602;2022-09-03T03:42:50;13.78;62.93
66740;DHT22;53653;52.188;8.602;2022-09-03T03:45:16;13.79;62.97
66740;DHT22;53653;52.188;8.602;2022-09-03T03:47:42;13.77;62.98
66740;DHT22;53653;52.188;8.602;2022-09-03T03:50:07;13.78;62.97
66740;DHT22;53653;52.188;8.602;2022-09-03T03:52:32;13.77;63.04
66740;DHT22;53653;52.188;8.602;2022-09-03T03:54:58;13.74;63.16
66740;DHT22;53653;52.188;8.602;2022-09-03T03:57:23;13.74;63.18
66740;DHT22;53653;52.188;8.602;2022-09-03T03:59:49;13.71;63.25
66740;DHT22;53653;52.188;8.602;2022-09-03T04:02:15;13.67;63.46
66740;DHT22;53653;52.188;8.602;2022-09-03T04:04:41;13.64;63.64
66740;DHT22;53653;52.188;8.602;2022-09-03T04:07:07;13.61;63.79
66740;DHT22;53653;52.188;8.602;2022-09-03T04:09:33;13.55;63.98
66740;DHT22;53653;52.188;8.602;2022-09-03T04:11:59;13.54;64.07
66740;DHT22;53653;52.188;8.602;2022-09-03T04:14:24;13.53;64.16
66740;DHT22;53653;52.188;8.602;2022-09-03T04:16:51;13.51;64.15
66740;DHT22;53653;52.188;8.602;2022-09-03T04:19:17;13.47;64.36
66740;DHT22;53653;52.188;8.602;2022-09-03T04:21:43;13.46;64.44
66740;DHT22;53653;52.188;8.602;2022-09-03T04:24:11;13.44;64.47
66740;DHT22;53653;52.188;8.602;2022-09-03T04:26:36;13.44;64.74
66740;DHT22;53653;52.188;8.602;2022-09-03T04:29:07;13.37;64.85
66740;DHT22;53653;52.188;8.602;2022-09-03T04:31:34;13.37;65.02
66740;DHT22;53653;52.188;8.602;2022-09-03T04:34:00;13.27;65.47
66740;DHT22;53653;52.188;8.602;2022-09-03T04:36:28;13.24;65.51
66740;DHT22;53653;52.188;8.602;2022-09-03T04:38:54;13.23;65.67
66740;DHT22;53653;52.188;8.602;2022-09-03T04:41:22;13.21;65.76
66740;DHT22;53653;52.188;8.602;2022-09-03T04:43:55;13.20;65.78
66740;DHT22;53653;52.188;8.602;2022-09-03T04:46:23;13.23;65.70
66740;DHT22;53653;52.188;8.602;2022-09-03T04:48:52;13.19;65.84
66740;DHT22;53653;52.188;8.602;2022-09-03T04:51:23;13.26;65.72
66740;DHT22;53653;52.188;8.602;2022-09-03T04:53:54;13.30;65.53
66740;DHT22;53653;52.188;8.602;2022-09-03T04:56:33;13.28;65.40
66740;DHT22;53653;52.188;8.602;2022-09-03T04:59:01;13.34;65.20
66740;DHT22;53653;52.188;8.602;2022-09-03T05:01:28;13.40;65.17
66740;DHT22;53653;52.188;8.602;2022-09-03T05:03:55;13.40;65.22
66740;DHT22;53653;52.188;8.602;2022-09-03T05:06:22;13.44;65.10
66740;DHT22;53653;52.188;8.602;2022-09-03T05:08:50;13.50;64.79
66740;DHT22;53653;52.188;8.602;2022-09-03T05:11:16;13.57;64.77
66740;DHT22;53653;52.188;8.602;2022-09-03T05:13:42;13.64;64.52
66740;DHT22;53653;52.188;8.602;2022-09-03T05:16:09;13.74;64.19
66740;DHT22;53653;52.188;8.602;2022-09-03T05:18:35;13.82;64.06
66740;DHT22;53653;52.188;8.602;2022-09-03T05:21:03;13.88;63.63
66740;DHT22;53653;52.188;8.602;2022-09-03T05:23:29;13.92;63.47
66740;DHT22;53653;52.188;8.602;2022-09-03T05:28:23;14.12;63.00
66740;DHT22;53653;52.188;8.602;2022-09-03T05:30:58;14.23;62.75
66740;DHT22;53653;52.188;8.602;2022-09-03T05:33:23;14.30;62.64
66740;DHT22;53653;52.188;8.602;2022-09-03T05:35:49;14.27;62.64
66740;DHT22;53653;52.188;8.602;2022-09-03T05:38:14;14.37;62.49
66740;DHT22;53653;52.188;8.602;2022-09-03T05:40:41;14.57;61.86
66740;DHT22;53653;52.188;8.602;2022-09-03T05:43:06;14.67;61.44
66740;DHT22;53653;52.188;8.602;2022-09-03T05:45:31;14.65;61.58
66740;DHT22;53653;52.188;8.602;2022-09-03T05:47:59;14.57;61.74
66740;DHT22;53653;52.188;8.602;2022-09-03T05:50:25;14.70;61.82
66740;DHT22;53653;52.188;8.602;2022-09-03T05:52:51;14.83;61.56
66740;DHT22;53653;52.188;8.602;2022-09-03T05:55:17;14.95;61.29
66740;DHT22;53653;52.188;8.602;2022-09-03T05:57:42;15.01;60.98
66740;DHT22;53653;52.188;8.602;2022-09-03T06:00:09;15.23;60.78
66740;DHT22;53653;52.188;8.602;2022-09-03T06:02:35;15.39;60.49
66740;DHT22;53653;52.188;8.602;2022-09-03T06:05:01;15.46;60.25
66740;DHT22;53653;52.188;8.602;2022-09-03T06:07:26;15.47;60.07
66740;DHT22;53653;52.188;8.602;2022-09-03T06:09:51;15.56;59.79
66740;DHT22;53653;52.188;8.602;2022-09-03T06:12:17;15.71;59.51
66740;DHT22;53653;52.188;8.602;2022-09-03T06:14:43;15.66;59.62
66740;DHT22;53653;52.188;8.602;2022-09-03T06:17:08;15.87;59.19
66740;DHT22;53653;52.188;8.602;2022-09-03T06:19:35;15.91;58.91
66740;DHT22;53653;52.188;8.602;2022-09-03T06:22:01;15.87;58.88
66740;DHT22;53653;52.188;8.602;2022-09-03T06:24:26;15.89;58.98
66740;DHT22;53653;52.188;8.602;2022-09-03T06:26:54;16.14;58.90
66740;DHT22;53653;52.188;8.602;2022-09-03T06:29:20;16.29;58.37
66740;DHT22;53653;52.188;8.602;2022-09-03T06:31:46;16.28;58.24
66740;DHT22;53653;52.188;8.602;2022-09-03T06:34:13;16.52;57.59
66740;DHT22;53653;52.188;8.602;2022-09-03T06:36:38;16.44;57.97
66740;DHT22;53653;52.188;8.602;2022-09-03T06:39:05;16.59;57.46
66740;DHT22;53653;52.188;8.602;2022-09-03T06:41:31;16.75;57.23
66740;DHT22;53653;52.188;8.602;2022-09-03T06:44:07;16.97;56.45
66740;DHT22;53653;52.188;8.602;2022-09-03T06:46:37;17.14;56.02
66740;DHT22;53653;52.188;8.602;2022-09-03T06:49:10;16.91;56.41
66740;DHT22;53653;52.188;8.602;2022-09-03T06:51:36;16.96;56.26
66740;DHT22;53653;52.188;8.602;2022-09-03T06:54:08;17.18;55.68
66740;DHT22;53653;52.188;8.602;2022-09-03T06:56:35;17.44;54.99
66740;DHT22;53653;52.188;8.602;2022-09-03T06:59:06;17.72;54.49
66740;DHT22;53653;52.188;8.602;2022-09-03T07:01:32;17.83;54.27
66740;DHT22;53653;52.188;8.602;2022-09-03T07:04:00;17.93;54.18
66740;DHT22;53653;52.188;8.602;2022-09-03T07:06:27;18.12;53.40
66740;DHT22;53653;52.188;8.602;2022-09-03T07:08:54;18.14;53.61
66740;DHT22;53653;52.188;8.602;2022-09-03T07:11:23;18.33;52.96
66740;DHT22;53653;52.188;8.602;2022-09-03T07:13:52;18.36;52.95
66740;DHT22;53653;52.188;8.602;2022-09-03T07:16:29;18.71;52.45
66740;DHT22;53653;52.188;8.602;2022-09-03T07:18:55;19.10;51.36
66740;DHT22;53653;52.188;8.602;2022-09-03T07:21:23;19.18;50.52
66740;DHT22;53653;52.188;8.602;2022-09-03T07:23:51;19.26;50.67
66740;DHT22;53653;52.188;8.602;2022-09-03T07:26:25;19.27;50.14
66740;DHT22;53653;52.188;8.602;2022-09-03T07:28:51;19.37;49.89
66740;DHT22;53653;52.188;8.602;2022-09-03T07:31:33;19.31;49.93
66740;DHT22;53653;52.188;8.602;2022-09-03T07:34:00;19.70;49.08
66740;DHT22;53653;52.188;8.602;2022-09-03T07:36:28;19.60;49.17
66740;DHT22;53653;52.188;8.602;2022-09-03T07:38:55;19.45;49.79
66740;DHT22;53653;52.188;8.602;2022-09-03T07:41:21;19.71;48.90
66740;DHT22;53653;52.188;8.602;2022-09-03T07:43:47;19.78;48.85
66740;DHT22;53653;52.188;8.602;2022-09-03T07:46:15;19.74;48.77
66740;DHT22;53653;52.188;8.602;2022-09-03T07:48:54;19.60;49.58
66740;DHT22;53653;52.188;8.602;2022-09-03T07:51:22;19.80;49.37
66740;DHT22;53653;52.188;8.602;2022-09-03T07:53:51;20.05;48.07
66740;DHT22;53653;52.188;8.602;2022-09-03T07:56:17;19.99;48.21
66740;DHT22;53653;52.188;8.602;2022-09-03T07:58:42;20.42;47.46
66740;DHT22;53653;52.188;8.602;2022-09-03T08:01:11;20.35;47.59
66740;DHT22;53653;52.188;8.602;2022-09-03T08:03:38;20.24;47.57
66740;DHT22;53653;52.188;8.602;2022-09-03T08:06:07;20.53;47.10
66740;DHT22;53653;52.188;8.602;2022-09-03T08:08:34;20.14;47.86
66740;DHT22;53653;52.188;8.602;2022-09-03T08:11:08;20.37;47.32
66740;DHT22;53653;52.188;8.602;2022-09-03T08:16:08;20.32;47.34
66740;DHT22;53653;52.188;8.602;2022-09-03T08:18:34;20.60;47.25
66740;DHT22;53653;52.188;8.602;2022-09-03T08:21:07;20.45;46.74
66740;DHT22;53653;52.188;8.602;2022-09-03T08:23:36;20.83;46.27
66740;DHT22;53653;52.188;8.602;2022-09-03T08:26:02;21.12;46.08
66740;DHT22;53653;52.188;8.602;2022-09-03T08:28:27;21.12;45.32
66740;DHT22;53653;52.188;8.602;2022-09-03T08:30:54;21.07;45.32
66740;DHT22;53653;52.188;8.602;2022-09-03T08:33:20;21.24;44.95
66740;DHT22;53653;52.188;8.602;2022-09-03T08:36:12;21.61;43.92
66740;DHT22;53653;52.188;8.602;2022-09-03T08:38:39;21.31;44.71
66740;DHT22;53653;52.188;8.602;2022-09-03T08:41:14;21.34;44.63
66740;DHT22;53653;52.188;8.602;2022-09-03T08:46:19;21.62;43.95
66740;DHT22;53653;52.188;8.602;2022-09-03T08:48:46;21.88;43.28
66740;DHT22;53653;52.188;8.602;2022-09-03T08:51:13;21.80;43.35
66740;DHT22;53653;52.188;8.602;2022-09-03T08:53:47;22.31;42.41
66740;DHT22;53653;52.188;8.602;2022-09-03T08:56:20;22.01;42.28
66740;DHT22;53653;52.188;8.602;2022-09-03T08:58:48;22.03;42.64
66740;DHT22;53653;52.188;8.602;2022-09-03T09:02:16;22.41;42.22
66740;DHT22;53653;52.188;8.602;2022-09-03T09:04:43;22.14;42.01
66740;DHT22;53653;52.188;8.602;2022-09-03T09:12:50;22.51;41.66
66740;DHT22;53653;52.188;8.602;2022-09-03T09:15:29;22.44;41.59
66740;DHT22;53653;52.188;8.602;2022-09-03T09:18:05;22.33;41.65
66740;DHT22;53653;52.188;8.602;2022-09-03T09:20:48;22.65;41.41
66740;DHT22;53653;52.188;8.602;2022-09-03T09:23:23;22.95;40.55
66740;DHT22;53653;52.188;8.602;2022-09-03T09:25:50;23.10;40.49
66740;DHT22;53653;52.188;8.602;2022-09-03T09:28:20;23.12;40.55
66740;DHT22;53653;52.188;8.602;2022-09-03T09:30:48;23.24;39.95
66740;DHT22;53653;52.188;8.602;2022-09-03T09:33:18;22.91;40.99
66740;DHT22;53653;52.188;8.602;2022-09-03T09:35:45;23.42;39.78
66740;DHT22;53653;52.188;8.602;2022-09-03T09:38:11;23.65;39.21
66740;DHT22;53653;52.188;8.602;2022-09-03T09:40:40;23.55;39.38
66740;DHT22;53653;52.188;8.602;2022-09-03T09:43:16;23.67;39.55
66740;DHT22;53653;52.188;8.602;2022-09-03T09:45:46;23.50;39.66
66740;DHT22;53653;52.188;8.602;2022-09-03T09:50:41;23.19;40.04
66740;DHT22;53653;52.188;8.602;2022-09-03T09:53:09;23.28;39.70
66740;DHT22;53653;52.188;8.602;2022-09-03T09:56:08;23.64;39.32
66740;DHT22;53653;52.188;8.602;2022-09-03T09:58:44;23.60;39.12
66740;DHT22;53653;52.188;8.602;2022-09-03T10:01:17;23.61;39.14
66740;DHT22;53653;52.188;8.602;2022-09-03T10:03:55;23.73;39.05
66740;DHT22;53653;52.188;8.602;2022-09-03T10:06:26;23.31;39.73
66740;DHT22;53653;52.188;8.602;2022-09-03T10:09:13;23.74;39.66
66740;DHT22;53653;52.188;8.602;2022-09-03T10:11:43;23.75;39.01
66740;DHT22;53653;52.188;8.602;2022-09-03T10:14:24;23.47;39.35
66740;DHT22;53653;52.188;8.602;2022-09-03T10:17:02;24.19;38.77
66740;DHT22;53653;52.188;8.602;2022-09-03T10:25:30;23.88;38.69
66740;DHT22;53653;52.188;8.602;2022-09-03T10:28:00;24.18;38.32
66740;DHT22;53653;52.188;8.602;2022-09-03T10:30:27;24.15;38.05
66740;DHT22;53653;52.188;8.602;2022-09-03T10:33:00;23.98;37.82
66740;DHT22;53653;52.188;8.602;2022-09-03T10:35:31;24.32;37.50
66740;DHT22;53653;52.188;8.602;2022-09-03T10:40:57;24.52;36.83
66740;DHT22;53653;52.188;8.602;2022-09-03T10:46:15;24.35;37.17
66740;DHT22;53653;52.188;8.602;2022-09-03T10:51:49;24.87;36.65
66740;DHT22;53653;52.188;8.602;2022-09-03T11:05:31;24.92;36.68
66740;DHT22;53653;52.188;8.602;2022-09-03T11:10:48;24.84;36.98
66740;DHT22;53653;52.188;8.602;2022-09-03T11:13:43;24.57;37.38
66740;DHT22;53653;52.188;8.602;2022-09-03T11:16:18;24.46;37.41
66740;DHT22;53653;52.188;8.602;2022-09-03T11:18:51;24.37;37.78
66740;DHT22;53653;52.188;8.602;2022-09-03T11:21:21;24.52;37.33
66740;DHT22;53653;52.188;8.602;2022-09-03T11:24:21;24.66;37.62
66740;DHT22;53653;52.188;8.602;2022-09-03T11:27:17;24.77;37.35
66740;DHT22;53653;52.188;8.602;2022-09-03T11:37:57;25.03;36.55
66740;DHT22;53653;52.188;8.602;2022-09-03T11:40:32;24.92;36.69
66740;DHT22;53653;52.188;8.602;2022-09-03T11:43:13;25.12;36.49
66740;DHT22;53653;52.188;8.602;2022-09-03T11:46:10;25.11;36.22
66740;DHT22;53653;52.188;8.602;2022-09-03T11:53:59;25.55;35.72
66740;DHT22;53653;52.188;8.602;2022-09-03T11:56:24;26.16;35.12
66740;DHT22;53653;52.188;8.602;2022-09-03T12:01:28;25.79;35.31
66740;DHT22;53653;52.188;8.602;2022-09-03T12:03:59;25.63;35.53
66740;DHT22;53653;52.188;8.602;2022-09-03T12:17:29;25.28;35.25
66740;DHT22;53653;52.188;8.602;2022-09-03T12:19:58;25.75;34.75
66740;DHT22;53653;52.188;8.602;2022-09-03T12:22:28;25.76;34.53
66740;DHT22;53653;52.188;8.602;2022-09-03T12:25:06;25.43;34.63
66740;DHT22;53653;52.188;8.602;2022-09-03T12:27:32;25.66;34.42
66740;DHT22;53653;52.188;8.602;2022-09-03T12:30:03;26.16;34.10
66740;DHT22;53653;52.188;8.602;2022-09-03T12:32:32;26.14;33.87
66740;DHT22;53653;52.188;8.602;2022-09-03T12:37:36;25.96;34.28
66740;DHT22;53653;52.188;8.602;2022-09-03T12:40:02;25.79;34.83
66740;DHT22;53653;52.188;8.602;2022-09-03T12:42:30;26.24;33.86
66740;DHT22;53653;52.188;8.602;2022-09-03T12:45:05;26.61;33.14
66740;DHT22;53653;52.188;8.602;2022-09-03T12:47:37;27.02;32.95
66740;DHT22;53653;52.188;8.602;2022-09-03T12:50:14;26.43;33.83
66740;DHT22;53653;52.188;8.602;2022-09-03T12:55:31;25.80;35.02
66740;DHT22;53653;52.188;8.602;2022-09-03T13:01:08;26.00;34.62
66740;DHT22;53653;52.188;8.602;2022-09-03T13:03:46;25.79;35.17
66740;DHT22;53653;52.188;8.602;2022-09-03T13:06:20;25.68;35.20
66740;DHT22;53653;52.188;8.602;2022-09-03T13:08:49;25.34;35.55
66740;DHT22;53653;52.188;8.602;2022-09-03T13:11:18;24.90;36.36
66740;DHT22;53653;52.188;8.602;2022-09-03T13:14:00;25.29;35.17
66740;DHT22;53653;52.188;8.602;2022-09-03T13:16:29;25.50;35.52
66740;DHT22;53653;52.188;8.602;2022-09-03T13:29:45;25.69;34.89
66740;DHT22;53653;52.188;8.602;2022-09-03T13:34:58;25.69;35.14
66740;DHT22;53653;52.188;8.602;2022-09-03T13:40:23;25.22;35.80
66740;DHT22;53653;52.188;8.602;2022-09-03T13:42:54;25.22;35.73
66740;DHT22;53653;52.188;8.602;2022-09-03T13:48:43;25.12;35.90
66740;DHT22;53653;52.188;8.602;2022-09-03T13:51:58;25.14;35.96
66740;DHT22;53653;52.188;8.602;2022-09-03T13:54:42;25.43;35.78
66740;DHT22;53653;52.188;8.602;2022-09-03T13:59:52;25.70;35.09
66740;DHT22;53653;52.188;8.602;2022-09-03T14:07:33;25.48;34.97
66740;DHT22;53653;52.188;8.602;2022-09-03T14:15:46;25.19;35.89
66740;DHT22;53653;52.188;8.602;2022-09-03T14:21:02;25.35;35.56
66740;DHT22;53653;52.188;8.602;2022-09-03T14:23:50;25.68;35.27
66740;DHT22;53653;52.188;8.602;2022-09-03T14:26:26;25.76;35.08
66740;DHT22;53653;52.188;8.602;2022-09-03T14:29:06;25.56;34.83
66740;DHT22;53653;52.188;8.602;2022-09-03T14:34:54;25.55;35.23
66740;DHT22;53653;52.188;8.602;2022-09-03T15:02:03;24.55;36.64
66740;DHT22;53653;52.188;8.602;2022-09-03T15:07:53;24.36;36.80
66740;DHT22;53653;52.188;8.602;2022-09-03T15:13:15;24.30;36.94
66740;DHT22;53653;52.188;8.602;2022-09-03T15:20:53;24.22;36.93
66740;DHT22;53653;52.188;8.602;2022-09-03T15:37:15;24.28;36.99
66740;DHT22;53653;52.188;8.602;2022-09-03T15:39:43;24.42;36.71
66740;DHT22;53653;52.188;8.602;2022-09-03T15:42:21;24.40;36.72
66740;DHT22;53653;52.188;8.602;2022-09-03T15:44:53;24.46;36.32
66740;DHT22;53653;52.188;8.602;2022-09-03T15:47:40;24.36;36.89
66740;DHT22;53653;52.188;8.602;2022-09-03T15:50:30;24.36;37.03
66740;DHT22;53653;52.188;8.602;2022-09-03T15:53:14;24.44;36.80
66740;DHT22;53653;52.188;8.602;2022-09-03T15:55:42;24.67;36.85
66740;DHT22;53653;52.188;8.602;2022-09-03T15:58:29;24.71;36.64
66740;DHT22;53653;52.188;8.602;2022-09-03T16:20:31;24.30;37.02
66740;DHT22;53653;52.188;8.602;2022-09-03T16:25:59;24.11;37.30
66740;DHT22;53653;52.188;8.602;2022-09-03T16:28:42;24.04;37.56
66740;DHT22;53653;52.188;8.602;2022-09-03T16:36:45;23.84;37.88
66740;DHT22;53653;52.188;8.602;2022-09-03T16:45:19;23.85;37.57
66740;DHT22;53653;52.188;8.602;2022-09-03T16:51:03;23.92;37.69
66740;DHT22;53653;52.188;8.602;2022-09-03T17:02:07;23.75;37.42
66740;DHT22;53653;52.188;8.602;2022-09-03T17:07:37;23.63;37.79
66740;DHT22;53653;52.188;8.602;2022-09-03T17:15:48;23.43;37.58
66740;DHT22;53653;52.188;8.602;2022-09-03T17:18:37;23.27;37.71
66740;DHT22;53653;52.188;8.602;2022-09-03T17:21:17;23.31;37.54
66740;DHT22;53653;52.188;8.602;2022-09-03T17:24:22;23.27;37.69
66740;DHT22;53653;52.188;8.602;2022-09-03T17:35:16;22.96;38.41
66740;DHT22;53653;52.188;8.602;2022-09-03T17:38:12;22.91;38.61
66740;DHT22;53653;52.188;8.602;2022-09-03T17:46:07;22.68;39.03
66740;DHT22;53653;52.188;8.602;2022-09-03T18:05:20;22.30;39.49
66740;DHT22;53653;52.188;8.602;2022-09-03T18:14:08;22.16;39.57
66740;DHT22;53653;52.188;8.602;2022-09-03T18:16:40;22.10;39.48
66740;DHT22;53653;52.188;8.602;2022-09-03T18:19:33;22.03;39.58
66740;DHT22;53653;52.188;8.602;2022-09-03T18:22:21;21.97;39.62
66740;DHT22;53653;52.188;8.602;2022-09-03T18:25:06;21.93;39.69
66740;DHT22;53653;52.188;8.602;2022-09-03T18:27:56;21.85;39.82
66740;DHT22;53653;52.188;8.602;2022-09-03T18:30:41;21.76;39.83
66740;DHT22;53653;52.188;8.602;2022-09-03T18:33:25;21.73;39.81
66740;DHT22;53653;52.188;8.602;2022-09-03T18:36:10;21.65;39.91
66740;DHT22;53653;52.188;8.602;2022-09-03T18:39:13;21.59;39.96
66740;DHT22;53653;52.188;8.602;2022-09-03T18:42:22;21.58;39.81
66740;DHT22;53653;52.188;8.602;2022-09-03T18:51:18;21.42;39.94
66740;DHT22;53653;52.188;8.602;2022-09-03T19:00:47;21.08;40.70
66740;DHT22;53653;52.188;8.602;2022-09-03T19:04:12;21.00;40.79
66740;DHT22;53653;52.188;8.602;2022-09-03T19:07:06;20.87;41.22
66740;DHT22;53653;52.188;8.602;2022-09-03T19:10:13;20.84;41.19
66740;DHT22;53653;52.188;8.602;2022-09-03T19:25:13;20.45;42.09
66740;DHT22;53653;52.188;8.602;2022-09-03T19:28:17;20.35;42.43
66740;DHT22;53653;52.188;8.602;2022-09-03T19:34:41;20.16;42.84
66740;DHT22;53653;52.188;8.602;2022-09-03T19:38:03;20.09;42.96
66740;DHT22;53653;52.188;8.602;2022-09-03T19:47:03;19.88;43.49
66740;DHT22;53653;52.188;8.602;2022-09-03T19:50:33;19.82;43.72
66740;DHT22;53653;52.188;8.602;2022-09-03T19:53:10;19.75;43.88
66740;DHT22;53653;52.188;8.602;2022-09-03T19:55:57;19.68;44.04
66740;DHT22;53653;52.188;8.602;2022-09-03T19:58:51;19.64;44.03
66740;DHT22;53653;52.188;8.602;2022-09-03T20:01:37;19.68;44.03
66740;DHT22;53653;52.188;8.602;2022-09-03T20:05:00;19.64;43.95
66740;DHT22;53653;52.188;8.602;2022-09-03T20:07:48;19.60;43.80
66740;DHT22;53653;52.188;8.602;2022-09-03T20:10:34;19.66;43.70
66740;DHT22;53653;52.188;8.602;2022-09-03T20:13:09;19.63;43.73
66740;DHT22;53653;52.188;8.602;2022-09-03T20:15:54;19.61;43.64
66740;DHT22;53653;52.188;8.602;2022-09-03T20:30:25;19.41;44.14
66740;DHT22;53653;52.188;8.602;2022-09-03T20:41:06;19.43;44.29
66740;DHT22;53653;52.188;8.602;2022-09-03T20:44:03;19.41;44.23
66740;DHT22;53653;52.188;8.602;2022-09-03T20:52:17;19.40;44.47
66740;DHT22;53653;52.188;8.602;2022-09-03T20:55:26;19.39;44.63
66740;DHT22;53653;52.188;8.602;2022-09-03T21:00:46;19.24;44.99
66740;DHT22;53653;52.188;8.602;2022-09-03T21:03:24;19.18;45.21
66740;DHT22;53653;52.188;8.602;2022-09-03T21:14:41;18.92;46.14
66740;DHT22;53653;52.188;8.602;2022-09-03T21:28:40;18.50;47.85
66740;DHT22;53653;52.188;8.602;2022-09-03T21:31:17;18.38;48.29
66740;DHT22;53653;52.188;8.602;2022-09-03T21:33:46;18.32;48.63
66740;DHT22;53653;52.188;8.602;2022-09-03T21:36:19;18.18;48.84
66740;DHT22;53653;52.188;8.602;2022-09-03T21:38:57;18.07;49.08
66740;DHT22;53653;52.188;8.602;2022-09-03T21:41:31;18.02;49.19
66740;DHT22;53653;52.188;8.602;2022-09-03T22:01:01;17.79;50.11
66740;DHT22;53653;52.188;8.602;2022-09-03T22:03:30;17.74;50.28
66740;DHT22;53653;52.188;8.602;2022-09-03T22:06:02;17.65;50.48
66740;DHT22;53653;52.188;8.602;2022-09-03T22:08:35;17.56;50.82
66740;DHT22;53653;52.188;8.602;2022-09-03T22:14:18;17.48;51.26
66740;DHT22;53653;52.188;8.602;2022-09-03T22:19:15;17.44;51.35
66740;DHT22;53653;52.188;8.602;2022-09-03T22:30:09;17.28;51.65
66740;DHT22;53653;52.188;8.602;2022-09-03T22:49:48;17.06;52.16
66740;DHT22;53653;52.188;8.602;2022-09-03T22:54:56;16.97;52.40
66740;DHT22;53653;52.188;8.602;2022-09-03T22:57:26;16.93;52.36
66740;DHT22;53653;52.188;8.602;2022-09-03T23:00:06;16.89;52.50
66740;DHT22;53653;52.188;8.602;2022-09-03T23:02:32;16.83;52.58
66740;DHT22;53653;52.188;8.602;2022-09-03T23:05:29;16.80;52.73
66740;DHT22;53653;52.188;8.602;2022-09-03T23:08:13;16.75;52.81
66740;DHT22;53653;52.188;8.602;2022-09-03T23:11:02;16.73;52.92
66740;DHT22;53653;52.188;8.602;2022-09-03T23:16:04;16.62;53.23
66740;DHT22;53653;52.188;8.602;2022-09-03T23:18:32;16.58;53.52
66740;DHT22;53653;52.188;8.602;2022-09-03T23:21:33;16.49;53.89
66740;DHT22;53653;52.188;8.602;2022-09-03T23:24:06;16.42;54.15
66740;DHT22;53653;52.188;8.602;2022-09-03T23:26:41;16.36;54.40
66740;DHT22;53653;52.188;8.602;2022-09-03T23:29:19;16.36;54.54